sensor_id;sensor_type;location;lat;lon;timestamp;P1;durP1;ratioP1;P2;durP2;ratioP2
7519;SDS011;3801;48.876;10.184;2023-11-19T00:00:15;4.17;;;3.33;;
7519;SDS011;3801;48.876;10.184;2023-11-19T00:05:20;3.30;;;2.70;;
7519;SDS011;3801;48.876;10.184;2023-11-19T00:10:24;4.30;;;2.40;;
7519;SDS011;3801;48.876;10.184;2023-11-19T00:15:30;2.30;;;2.10;;
7519;SDS011;3801;48.876;10.184;2023-11-19T00:20:35;2.40;;;2.20;;
7519;SDS011;3801;48.876;10.184;2023-11-19T00:25:39;4.23;;;2.40;;
7519;SDS011;3801;48.876;10.184;2023-11-19T00:30:43;2.67;;;2.00;;
7519;SDS011;3801;48.876;10.184;2023-11-19T00:35:48;3.80;;;2.77;;
7519;SDS011;3801;48.876;10.184;2023-11-19T00:40:54;4.47;;;2.70;;
7519;SDS011;3801;48.876;10.184;2023-11-19T00:46:00;4.23;;;2.33;;
7519;SDS011;3801;48.876;10.184;2023-11-19T00:51:11;2.37;;;1.83;;
7519;SDS011;3801;48.876;10.184;2023-11-19T00:56:15;6.20;;;2.93;;
7519;SDS011;3801;48.876;10.184;2023-11-19T01:01:19;1.73;;;1.50;;
7519;SDS011;3801;48.876;10.184;2023-11-19T01:06:38;2.87;;;1.80;;
7519;SDS011;3801;48.876;10.184;2023-11-19T01:11:47;1.77;;;1.60;;
7519;SDS011;3801;48.876;10.184;2023-11-19T01:16:50;2.30;;;1.77;;
7519;SDS011;3801;48.876;10.184;2023-11-19T01:21:57;1.70;;;1.60;;
7519;SDS011;3801;48.876;10.184;2023-11-19T01:27:02;2.40;;;2.00;;
7519;SDS011;3801;48.876;10.184;2023-11-19T01:32:06;2.77;;;2.03;;
7519;SDS011;3801;48.876;10.184;2023-11-19T01:37:12;2.40;;;2.00;;
7519;SDS011;3801;48.876;10.184;2023-11-19T01:42:17;2.30;;;1.93;;
7519;SDS011;3801;48.876;10.184;2023-11-19T01:47:22;1.50;;;1.40;;
7519;SDS011;3801;48.876;10.184;2023-11-19T01:52:32;1.70;;;1.50;;
7519;SDS011;3801;48.876;10.184;2023-11-19T01:57:38;2.13;;;1.60;;
7519;SDS011;3801;48.876;10.184;2023-11-19T02:02:43;2.57;;;1.90;;
7519;SDS011;3801;48.876;10.184;2023-11-19T02:07:52;2.37;;;2.10;;
7519;SDS011;3801;48.876;10.184;2023-11-19T02:12:56;2.37;;;1.80;;
7519;SDS011;3801;48.876;10.184;2023-11-19T02:18:17;2.00;;;1.70;;
7519;SDS011;3801;48.876;10.184;2023-11-19T02:23:31;2.03;;;1.80;;
7519;SDS011;3801;48.876;10.184;2023-11-19T02:28:43;2.00;;;1.70;;
7519;SDS011;3801;48.876;10.184;2023-11-19T02:33:51;1.40;;;1.30;;
7519;SDS011;3801;48.876;10.184;2023-11-19T02:38:54;1.47;;;1.37;;
7519;SDS011;3801;48.876;10.184;2023-11-19T02:44:00;2.77;;;1.40;;
7519;SDS011;3801;48.876;10.184;2023-11-19T02:49:07;1.37;;;1.27;;
7519;SDS011;3801;48.876;10.184;2023-11-19T02:54:22;1.40;;;1.30;;
7519;SDS011;3801;48.876;10.184;2023-11-19T02:59:31;1.63;;;1.30;;
7519;SDS011;3801;48.876;10.184;2023-11-19T03:04:45;1.20;;;1.10;;
7519;SDS011;3801;48.876;10.184;2023-11-19T03:10:06;1.50;;;1.40;;
7519;SDS011;3801;48.876;10.184;2023-11-19T03:15:15;1.50;;;1.40;;
7519;SDS011;3801;48.876;10.184;2023-11-19T03:20:30;1.50;;;1.40;;
7519;SDS011;3801;48.876;10.184;2023-11-19T03:25:44;1.57;;;1.47;;
7519;SDS011;3801;48.876;10.184;2023-11-19T03:31:05;1.30;;;1.20;;
7519;SDS011;3801;48.876;10.184;2023-11-19T03:36:25;1.37;;;1.23;;
7519;SDS011;3801;48.876;10.184;2023-11-19T03:41:39;1.80;;;1.43;;
7519;SDS011;3801;48.876;10.184;2023-11-19T03:46:53;1.60;;;1.50;;
7519;SDS011;3801;48.876;10.184;2023-11-19T03:52:02;1.47;;;1.20;;
7519;SDS011;3801;48.876;10.184;2023-11-19T03:57:24;1.23;;;1.13;;
7519;SDS011;3801;48.876;10.184;2023-11-19T04:02:30;0.83;;;0.83;;
7519;SDS011;3801;48.876;10.184;2023-11-19T04:07:41;1.00;;;1.00;;
7519;SDS011;3801;48.876;10.184;2023-11-19T04:12:59;0.90;;;0.90;;
7519;SDS011;3801;48.876;10.184;2023-11-19T04:18:15;0.80;;;0.80;;
7519;SDS011;3801;48.876;10.184;2023-11-19T04:23:22;1.40;;;1.30;;
7519;SDS011;3801;48.876;10.184;2023-11-19T04:28:34;2.50;;;1.30;;
7519;SDS011;3801;48.876;10.184;2023-11-19T04:33:38;1.10;;;1.10;;
7519;SDS011;3801;48.876;10.184;2023-11-19T04:38:47;1.20;;;1.10;;
7519;SDS011;3801;48.876;10.184;2023-11-19T04:43:54;1.07;;;1.00;;
7519;SDS011;3801;48.876;10.184;2023-11-19T04:49:03;1.07;;;0.97;;
7519;SDS011;3801;48.876;10.184;2023-11-19T04:54:10;1.43;;;0.80;;
7519;SDS011;3801;48.876;10.184;2023-11-19T04:59:29;0.90;;;0.90;;
7519;SDS011;3801;48.876;10.184;2023-11-19T05:04:37;0.90;;;0.90;;
7519;SDS011;3801;48.876;10.184;2023-11-19T05:09:42;1.00;;;1.00;;
7519;SDS011;3801;48.876;10.184;2023-11-19T05:14:53;0.93;;;0.93;;
7519;SDS011;3801;48.876;10.184;2023-11-19T05:19:59;0.90;;;0.90;;
7519;SDS011;3801;48.876;10.184;2023-11-19T05:25:06;1.07;;;1.00;;
7519;SDS011;3801;48.876;10.184;2023-11-19T05:30:15;0.87;;;0.87;;
7519;SDS011;3801;48.876;10.184;2023-11-19T05:35:36;0.90;;;0.90;;
7519;SDS011;3801;48.876;10.184;2023-11-19T05:40:49;0.90;;;0.90;;
7519;SDS011;3801;48.876;10.184;2023-11-19T05:46:00;1.17;;;0.90;;
7519;SDS011;3801;48.876;10.184;2023-11-19T05:51:23;1.27;;;1.10;;
7519;SDS011;3801;48.876;10.184;2023-11-19T05:56:29;1.30;;;1.20;;
7519;SDS011;3801;48.876;10.184;2023-11-19T06:01:36;1.10;;;1.00;;
7519;SDS011;3801;48.876;10.184;2023-11-19T06:06:49;1.00;;;1.00;;
7519;SDS011;3801;48.876;10.184;2023-11-19T06:12:02;1.10;;;1.10;;
7519;SDS011;3801;48.876;10.184;2023-11-19T06:17:10;0.87;;;0.87;;
7519;SDS011;3801;48.876;10.184;2023-11-19T06:22:16;0.90;;;0.90;;
7519;SDS011;3801;48.876;10.184;2023-11-19T06:27:19;0.87;;;0.87;;
7519;SDS011;3801;48.876;10.184;2023-11-19T06:32:24;1.33;;;1.10;;
7519;SDS011;3801;48.876;10.184;2023-11-19T06:37:38;0.97;;;0.97;;
7519;SDS011;3801;48.876;10.184;2023-11-19T06:42:44;1.00;;;1.00;;
7519;SDS011;3801;48.876;10.184;2023-11-19T06:47:47;0.90;;;0.90;;
7519;SDS011;3801;48.876;10.184;2023-11-19T06:52:52;1.30;;;1.20;;
7519;SDS011;3801;48.876;10.184;2023-11-19T06:58:00;0.90;;;0.90;;
7519;SDS011;3801;48.876;10.184;2023-11-19T07:03:05;0.90;;;0.90;;
7519;SDS011;3801;48.876;10.184;2023-11-19T07:08:15;1.17;;;1.07;;
7519;SDS011;3801;48.876;10.184;2023-11-19T07:13:26;1.60;;;1.10;;
7519;SDS011;3801;48.876;10.184;2023-11-19T07:18:30;0.90;;;0.90;;
7519;SDS011;3801;48.876;10.184;2023-11-19T07:29:43;0.90;;;0.90;;
7519;SDS011;3801;48.876;10.184;2023-11-19T07:35:25;1.30;;;0.93;;
7519;SDS011;3801;48.876;10.184;2023-11-19T07:40:31;0.73;;;0.73;;
7519;SDS011;3801;48.876;10.184;2023-11-19T07:45:44;0.70;;;0.70;;
7519;SDS011;3801;48.876;10.184;2023-11-19T07:50:49;0.70;;;0.70;;
7519;SDS011;3801;48.876;10.184;2023-11-19T08:01:43;1.10;;;0.87;;
7519;SDS011;3801;48.876;10.184;2023-11-19T08:06:46;2.63;;;2.43;;
7519;SDS011;3801;48.876;10.184;2023-11-19T08:11:50;0.60;;;0.60;;
7519;SDS011;3801;48.876;10.184;2023-11-19T08:16:54;0.60;;;0.60;;
7519;SDS011;3801;48.876;10.184;2023-11-19T08:21:58;0.80;;;0.80;;
7519;SDS011;3801;48.876;10.184;2023-11-19T08:27:01;0.60;;;0.60;;
7519;SDS011;3801;48.876;10.184;2023-11-19T08:32:06;0.70;;;0.70;;
7519;SDS011;3801;48.876;10.184;2023-11-19T08:37:10;1.07;;;0.80;;
7519;SDS011;3801;48.876;10.184;2023-11-19T08:42:16;0.80;;;0.80;;
7519;SDS011;3801;48.876;10.184;2023-11-19T08:47:21;1.00;;;0.90;;
7519;SDS011;3801;48.876;10.184;2023-11-19T08:52:25;0.80;;;0.80;;
7519;SDS011;3801;48.876;10.184;2023-11-19T08:57:28;0.70;;;0.70;;
7519;SDS011;3801;48.876;10.184;2023-11-19T09:02:33;0.90;;;0.90;;
7519;SDS011;3801;48.876;10.184;2023-11-19T09:07:39;0.60;;;0.60;;
7519;SDS011;3801;48.876;10.184;2023-11-19T09:12:42;1.03;;;0.50;;
7519;SDS011;3801;48.876;10.184;2023-11-19T09:17:47;1.23;;;0.60;;
7519;SDS011;3801;48.876;10.184;2023-11-19T09:22:51;5.20;;;1.33;;
7519;SDS011;3801;48.876;10.184;2023-11-19T09:27:54;0.57;;;0.57;;
7519;SDS011;3801;48.876;10.184;2023-11-19T09:32:59;1.27;;;0.90;;
7519;SDS011;3801;48.876;10.184;2023-11-19T09:38:09;1.17;;;1.00;;
7519;SDS011;3801;48.876;10.184;2023-11-19T09:43:17;4.30;;;2.93;;
7519;SDS011;3801;48.876;10.184;2023-11-19T09:53:54;1.00;;;1.00;;
7519;SDS011;3801;48.876;10.184;2023-11-19T09:59:11;0.70;;;0.70;;
7519;SDS011;3801;48.876;10.184;2023-11-19T10:09:56;1.13;;;1.03;;
7519;SDS011;3801;48.876;10.184;2023-11-19T10:21:30;0.80;;;0.80;;
7519;SDS011;3801;48.876;10.184;2023-11-19T10:51:46;3.27;;;1.40;;
7519;SDS011;3801;48.876;10.184;2023-11-19T11:21:43;1.97;;;1.00;;
7519;SDS011;3801;48.876;10.184;2023-11-19T11:26:53;1.00;;;0.90;;
7519;SDS011;3801;48.876;10.184;2023-11-19T11:32:04;1.13;;;0.80;;
7519;SDS011;3801;48.876;10.184;2023-11-19T11:37:16;1.10;;;1.00;;
7519;SDS011;3801;48.876;10.184;2023-11-19T11:42:31;3.37;;;1.27;;
7519;SDS011;3801;48.876;10.184;2023-11-19T11:53:17;2.83;;;1.50;;
7519;SDS011;3801;48.876;10.184;2023-11-19T11:58:21;2.80;;;1.00;;
7519;SDS011;3801;48.876;10.184;2023-11-19T12:03:26;1.63;;;1.40;;
7519;SDS011;3801;48.876;10.184;2023-11-19T12:08:32;1.30;;;1.00;;
7519;SDS011;3801;48.876;10.184;2023-11-19T12:13:55;1.80;;;1.33;;
7519;SDS011;3801;48.876;10.184;2023-11-19T12:19:02;1.13;;;1.00;;
7519;SDS011;3801;48.876;10.184;2023-11-19T12:24:09;4.37;;;1.40;;
7519;SDS011;3801;48.876;10.184;2023-11-19T12:29:13;1.23;;;1.10;;
7519;SDS011;3801;48.876;10.184;2023-11-19T12:34:16;1.87;;;1.10;;
7519;SDS011;3801;48.876;10.184;2023-11-19T12:39:21;2.33;;;1.00;;
7519;SDS011;3801;48.876;10.184;2023-11-19T12:44:25;3.07;;;1.20;;
7519;SDS011;3801;48.876;10.184;2023-11-19T12:49:29;1.07;;;0.90;;
7519;SDS011;3801;48.876;10.184;2023-11-19T12:54:35;1.93;;;1.13;;
7519;SDS011;3801;48.876;10.184;2023-11-19T12:59:39;1.87;;;1.30;;
7519;SDS011;3801;48.876;10.184;2023-11-19T13:04:42;2.53;;;1.20;;
7519;SDS011;3801;48.876;10.184;2023-11-19T13:09:47;1.93;;;1.10;;
7519;SDS011;3801;48.876;10.184;2023-11-19T13:14:51;2.17;;;1.17;;
7519;SDS011;3801;48.876;10.184;2023-11-19T13:19:55;2.30;;;1.50;;
7519;SDS011;3801;48.876;10.184;2023-11-19T13:25:00;1.50;;;1.30;;
7519;SDS011;3801;48.876;10.184;2023-11-19T13:30:04;2.10;;;1.07;;
7519;SDS011;3801;48.876;10.184;2023-11-19T13:35:08;3.07;;;1.20;;
7519;SDS011;3801;48.876;10.184;2023-11-19T13:40:15;1.27;;;1.00;;
7519;SDS011;3801;48.876;10.184;2023-11-19T13:45:18;1.93;;;1.20;;
7519;SDS011;3801;48.876;10.184;2023-11-19T13:50:28;4.30;;;1.60;;
7519;SDS011;3801;48.876;10.184;2023-11-19T13:55:33;1.80;;;1.37;;
7519;SDS011;3801;48.876;10.184;2023-11-19T14:00:36;2.03;;;1.57;;
7519;SDS011;3801;48.876;10.184;2023-11-19T14:05:40;4.80;;;4.27;;
7519;SDS011;3801;48.876;10.184;2023-11-19T14:10:45;4.00;;;2.23;;
7519;SDS011;3801;48.876;10.184;2023-11-19T14:15:49;1.70;;;1.40;;
7519;SDS011;3801;48.876;10.184;2023-11-19T14:20:53;3.63;;;1.53;;
7519;SDS011;3801;48.876;10.184;2023-11-19T14:25:58;3.43;;;1.50;;
7519;SDS011;3801;48.876;10.184;2023-11-19T14:31:01;1.53;;;1.23;;
7519;SDS011;3801;48.876;10.184;2023-11-19T14:36:05;5.23;;;1.30;;
7519;SDS011;3801;48.876;10.184;2023-11-19T14:41:10;2.20;;;1.20;;
7519;SDS011;3801;48.876;10.184;2023-11-19T14:46:14;2.10;;;1.27;;
7519;SDS011;3801;48.876;10.184;2023-11-19T14:51:17;1.23;;;1.00;;
7519;SDS011;3801;48.876;10.184;2023-11-19T14:56:22;0.70;;;0.70;;
7519;SDS011;3801;48.876;10.184;2023-11-19T15:01:26;5.07;;;1.07;;
7519;SDS011;3801;48.876;10.184;2023-11-19T15:06:30;1.40;;;1.30;;
7519;SDS011;3801;48.876;10.184;2023-11-19T15:11:37;2.10;;;1.70;;
7519;SDS011;3801;48.876;10.184;2023-11-19T15:16:41;3.77;;;2.10;;
7519;SDS011;3801;48.876;10.184;2023-11-19T15:21:44;3.37;;;1.97;;
7519;SDS011;3801;48.876;10.184;2023-11-19T15:26:49;1.13;;;1.00;;
7519;SDS011;3801;48.876;10.184;2023-11-19T15:31:53;2.13;;;1.03;;
7519;SDS011;3801;48.876;10.184;2023-11-19T15:36:56;0.97;;;0.90;;
7519;SDS011;3801;48.876;10.184;2023-11-19T15:42:01;3.07;;;1.40;;
7519;SDS011;3801;48.876;10.184;2023-11-19T15:47:05;3.57;;;1.10;;
7519;SDS011;3801;48.876;10.184;2023-11-19T15:52:09;1.40;;;1.10;;
7519;SDS011;3801;48.876;10.184;2023-11-19T15:57:16;1.43;;;1.30;;
7519;SDS011;3801;48.876;10.184;2023-11-19T16:02:19;2.47;;;1.40;;
7519;SDS011;3801;48.876;10.184;2023-11-19T16:07:23;2.37;;;1.47;;
7519;SDS011;3801;48.876;10.184;2023-11-19T16:12:28;3.17;;;1.00;;
7519;SDS011;3801;48.876;10.184;2023-11-19T16:17:31;2.17;;;1.10;;
7519;SDS011;3801;48.876;10.184;2023-11-19T16:22:37;1.47;;;1.10;;
7519;SDS011;3801;48.876;10.184;2023-11-19T16:27:41;1.13;;;0.90;;
7519;SDS011;3801;48.876;10.184;2023-11-19T16:32:48;2.27;;;1.07;;
7519;SDS011;3801;48.876;10.184;2023-11-19T16:37:51;1.33;;;0.90;;
7519;SDS011;3801;48.876;10.184;2023-11-19T16:42:56;3.23;;;1.40;;
7519;SDS011;3801;48.876;10.184;2023-11-19T16:48:00;1.53;;;1.10;;
7519;SDS011;3801;48.876;10.184;2023-11-19T16:53:05;12.93;;;6.57;;
7519;SDS011;3801;48.876;10.184;2023-11-19T16:58:10;9.33;;;4.50;;
7519;SDS011;3801;48.876;10.184;2023-11-19T17:03:14;3.87;;;2.27;;
7519;SDS011;3801;48.876;10.184;2023-11-19T17:08:17;2.00;;;1.23;;
7519;SDS011;3801;48.876;10.184;2023-11-19T17:13:22;5.63;;;2.30;;
7519;SDS011;3801;48.876;10.184;2023-11-19T17:18:25;2.30;;;1.70;;
7519;SDS011;3801;48.876;10.184;2023-11-19T17:23:29;4.30;;;2.17;;
7519;SDS011;3801;48.876;10.184;2023-11-19T17:28:34;1.67;;;1.50;;
7519;SDS011;3801;48.876;10.184;2023-11-19T17:33:37;4.43;;;2.27;;
7519;SDS011;3801;48.876;10.184;2023-11-19T17:38:41;4.17;;;2.40;;
7519;SDS011;3801;48.876;10.184;2023-11-19T17:43:46;5.50;;;1.60;;
7519;SDS011;3801;48.876;10.184;2023-11-19T17:48:50;1.97;;;1.10;;
7519;SDS011;3801;48.876;10.184;2023-11-19T17:53:54;2.77;;;1.43;;
7519;SDS011;3801;48.876;10.184;2023-11-19T17:58:59;2.67;;;1.43;;
7519;SDS011;3801;48.876;10.184;2023-11-19T18:04:03;3.73;;;1.33;;
7519;SDS011;3801;48.876;10.184;2023-11-19T18:09:07;4.73;;;2.50;;
7519;SDS011;3801;48.876;10.184;2023-11-19T18:14:13;2.93;;;1.90;;
7519;SDS011;3801;48.876;10.184;2023-11-19T18:19:18;2.87;;;1.27;;
7519;SDS011;3801;48.876;10.184;2023-11-19T18:24:22;2.17;;;1.50;;
7519;SDS011;3801;48.876;10.184;2023-11-19T18:29:27;4.97;;;1.50;;
7519;SDS011;3801;48.876;10.184;2023-11-19T18:34:31;6.80;;;3.20;;
7519;SDS011;3801;48.876;10.184;2023-11-19T18:39:35;2.93;;;2.27;;
7519;SDS011;3801;48.876;10.184;2023-11-19T18:44:45;8.17;;;3.20;;
7519;SDS011;3801;48.876;10.184;2023-11-19T18:55:13;3.90;;;2.50;;
7519;SDS011;3801;48.876;10.184;2023-11-19T19:00:25;7.13;;;2.50;;
7519;SDS011;3801;48.876;10.184;2023-11-19T19:05:34;3.27;;;1.50;;
7519;SDS011;3801;48.876;10.184;2023-11-19T19:10:44;2.40;;;1.47;;
7519;SDS011;3801;48.876;10.184;2023-11-19T19:16:00;6.10;;;2.57;;
7519;SDS011;3801;48.876;10.184;2023-11-19T19:21:22;6.10;;;1.90;;
7519;SDS011;3801;48.876;10.184;2023-11-19T19:26:46;2.97;;;2.30;;
7519;SDS011;3801;48.876;10.184;2023-11-19T19:32:16;3.80;;;2.47;;
7519;SDS011;3801;48.876;10.184;2023-11-19T19:37:26;3.17;;;2.03;;
7519;SDS011;3801;48.876;10.184;2023-11-19T19:42:47;2.90;;;2.10;;
7519;SDS011;3801;48.876;10.184;2023-11-19T19:54:09;6.93;;;2.80;;
7519;SDS011;3801;48.876;10.184;2023-11-19T19:59:20;5.07;;;1.93;;
7519;SDS011;3801;48.876;10.184;2023-11-19T20:04:33;3.63;;;2.13;;
7519;SDS011;3801;48.876;10.184;2023-11-19T20:10:02;3.83;;;2.03;;
7519;SDS011;3801;48.876;10.184;2023-11-19T20:15:11;8.03;;;1.80;;
7519;SDS011;3801;48.876;10.184;2023-11-19T20:20:19;5.00;;;1.80;;
7519;SDS011;3801;48.876;10.184;2023-11-19T20:25:24;6.67;;;2.57;;
7519;SDS011;3801;48.876;10.184;2023-11-19T20:30:28;6.20;;;2.30;;
7519;SDS011;3801;48.876;10.184;2023-11-19T20:35:34;4.07;;;2.00;;
7519;SDS011;3801;48.876;10.184;2023-11-19T20:40:45;7.67;;;2.70;;
7519;SDS011;3801;48.876;10.184;2023-11-19T20:45:48;14.20;;;6.63;;
7519;SDS011;3801;48.876;10.184;2023-11-19T21:41:53;13.97;;;4.03;;
7519;SDS011;3801;48.876;10.184;2023-11-19T21:47:04;8.17;;;2.60;;
7519;SDS011;3801;48.876;10.184;2023-11-19T22:11:47;10.03;;;3.50;;
7519;SDS011;3801;48.876;10.184;2023-11-19T22:22:52;6.30;;;2.43;;
7519;SDS011;3801;48.876;10.184;2023-11-19T23:31:14;15.13;;;3.20;;
7519;SDS011;3801;48.876;10.184;2023-11-19T23:36:27;12.27;;;2.30;;
7519;SDS011;3801;48.876;10.184;2023-11-19T23:41:49;11.53;;;2.93;;
7519;SDS011;3801;48.876;10.184;2023-11-19T23:47:28;12.83;;;3.40;;
